sensor_id;sensor_type;location;lat;lon;timestamp;pressure;altitude;pressure_sealevel;temperature;humidity
12951;BME280;6540;50.858;7.232;2023-04-20T00:02:15;51818.22;;;-142.34;26.07
12951;BME280;6540;50.858;7.232;2023-04-20T00:04:41;51852.53;;;-142.34;26.59
12951;BME280;6540;50.858;7.232;2023-04-20T00:07:06;51850.50;;;-142.34;26.38
12951;BME280;6540;50.858;7.232;2023-04-20T00:09:32;51840.41;;;-142.34;25.73
12951;BME280;6540;50.858;7.232;2023-04-20T00:11:57;51818.22;;;-142.34;25.99
12951;BME280;6540;50.858;7.232;2023-04-20T00:14:22;51856.56;;;-142.34;25.81
12951;BME280;6540;50.858;7.232;2023-04-20T00:16:48;51870.69;;;-142.34;26.35
12951;BME280;6540;50.858;7.232;2023-04-20T00:19:13;51832.34;;;-142.34;26.10
12951;BME280;6540;50.858;7.232;2023-04-20T00:21:39;51830.34;;;-142.34;25.61
12951;BME280;6540;50.858;7.232;2023-04-20T00:24:04;51842.44;;;-142.34;25.44
12951;BME280;6540;50.858;7.232;2023-04-20T00:26:30;51858.56;;;-142.34;25.94
12951;BME280;6540;50.858;7.232;2023-04-20T00:28:55;51862.63;;;-142.34;26.64
12951;BME280;6540;50.858;7.232;2023-04-20T00:31:20;51822.25;;;-142.34;26.22
12951;BME280;6540;50.858;7.232;2023-04-20T00:33:47;51874.72;;;-142.34;25.59
12951;BME280;6540;50.858;7.232;2023-04-20T00:36:12;51836.38;;;-142.34;26.06
12951;BME280;6540;50.858;7.232;2023-04-20T00:38:38;51812.19;;;-142.34;25.61
12951;BME280;6540;50.858;7.232;2023-04-20T00:41:03;51830.34;;;-142.34;25.58
12951;BME280;6540;50.858;7.232;2023-04-20T00:43:28;51854.53;;;-142.34;26.50
12951;BME280;6540;50.858;7.232;2023-04-20T00:45:54;51842.44;;;-142.34;26.67
12951;BME280;6540;50.858;7.232;2023-04-20T00:48:20;51850.50;;;-142.34;26.43
12951;BME280;6540;50.858;7.232;2023-04-20T00:50:46;51828.31;;;-142.34;26.61
12951;BME280;6540;50.858;7.232;2023-04-20T00:53:12;51842.44;;;-142.34;26.49
12951;BME280;6540;50.858;7.232;2023-04-20T00:55:38;51862.63;;;-142.34;25.79
12951;BME280;6540;50.858;7.232;2023-04-20T00:58:05;51773.84;;;-142.34;27.51
12951;BME280;6540;50.858;7.232;2023-04-20T01:00:31;51868.66;;;-142.34;26.71
12951;BME280;6540;50.858;7.232;2023-04-20T01:02:57;51838.41;;;-142.34;27.16
12951;BME280;6540;50.858;7.232;2023-04-20T01:05:22;51838.41;;;-142.34;26.73
12951;BME280;6540;50.858;7.232;2023-04-20T01:07:48;51822.25;;;-142.34;25.73
12951;BME280;6540;50.858;7.232;2023-04-20T01:10:13;51878.75;;;-142.34;25.81
12951;BME280;6540;50.858;7.232;2023-04-20T01:12:39;51870.69;;;-142.34;25.83
12951;BME280;6540;50.858;7.232;2023-04-20T01:15:05;51870.69;;;-142.34;25.99
12951;BME280;6540;50.858;7.232;2023-04-20T01:17:31;51834.38;;;-142.34;25.73
12951;BME280;6540;50.858;7.232;2023-04-20T01:19:57;51836.38;;;-142.34;25.84
12951;BME280;6540;50.858;7.232;2023-04-20T01:22:24;51816.22;;;-142.34;25.58
12951;BME280;6540;50.858;7.232;2023-04-20T01:24:50;51874.72;;;-142.34;25.82
12951;BME280;6540;50.858;7.232;2023-04-20T01:27:15;51834.38;;;-142.34;25.67
12951;BME280;6540;50.858;7.232;2023-04-20T01:29:41;51816.22;;;-142.34;25.63
12951;BME280;6540;50.858;7.232;2023-04-20T01:32:07;51850.50;;;-142.34;25.82
12951;BME280;6540;50.858;7.232;2023-04-20T01:34:32;51836.38;;;-142.34;25.80
12951;BME280;6540;50.858;7.232;2023-04-20T01:36:58;51854.53;;;-142.34;24.75
12951;BME280;6540;50.858;7.232;2023-04-20T01:39:23;51858.56;;;-142.34;24.94
12951;BME280;6540;50.858;7.232;2023-04-20T01:41:49;51850.50;;;-142.34;25.14
12951;BME280;6540;50.858;7.232;2023-04-20T01:44:14;51882.78;;;-142.34;25.08
12951;BME280;6540;50.858;7.232;2023-04-20T01:46:40;51850.50;;;-142.34;25.37
12951;BME280;6540;50.858;7.232;2023-04-20T01:49:06;51866.66;;;-142.34;25.29
12951;BME280;6540;50.858;7.232;2023-04-20T01:51:33;51848.50;;;-142.34;25.01
12951;BME280;6540;50.858;7.232;2023-04-20T01:53:59;51816.22;;;-142.34;25.21
12951;BME280;6540;50.858;7.232;2023-04-20T01:56:24;51822.25;;;-142.34;25.13
12951;BME280;6540;50.858;7.232;2023-04-20T01:58:50;51830.34;;;-142.34;25.10
12951;BME280;6540;50.858;7.232;2023-04-20T02:01:15;51832.34;;;-142.34;25.23
12951;BME280;6540;50.858;7.232;2023-04-20T02:03:41;51816.22;;;-142.34;25.67
12951;BME280;6540;50.858;7.232;2023-04-20T02:06:06;51846.47;;;-142.34;24.95
12951;BME280;6540;50.858;7.232;2023-04-20T02:08:32;51862.63;;;-142.34;25.47
12951;BME280;6540;50.858;7.232;2023-04-20T02:10:58;51830.34;;;-142.34;25.02
12951;BME280;6540;50.858;7.232;2023-04-20T02:13:23;51806.13;;;-142.34;25.05
12951;BME280;6540;50.858;7.232;2023-04-20T02:15:48;51818.22;;;-142.34;25.14
12951;BME280;6540;50.858;7.232;2023-04-20T02:18:14;51854.53;;;-142.34;25.52
12951;BME280;6540;50.858;7.232;2023-04-20T02:20:41;51856.56;;;-142.34;25.09
12951;BME280;6540;50.858;7.232;2023-04-20T02:23:06;51854.53;;;-142.34;25.99
12951;BME280;6540;50.858;7.232;2023-04-20T02:25:31;51838.41;;;-142.34;25.14
12951;BME280;6540;50.858;7.232;2023-04-20T02:27:57;51822.25;;;-142.34;25.10
12951;BME280;6540;50.858;7.232;2023-04-20T02:30:22;51810.16;;;-142.34;25.15
12951;BME280;6540;50.858;7.232;2023-04-20T02:32:47;51826.31;;;-142.34;25.10
12951;BME280;6540;50.858;7.232;2023-04-20T02:35:13;51814.19;;;-142.34;25.44
12951;BME280;6540;50.858;7.232;2023-04-20T02:37:38;51792.00;;;-142.34;25.38
12951;BME280;6540;50.858;7.232;2023-04-20T02:40:05;51856.56;;;-142.34;25.28
12951;BME280;6540;50.858;7.232;2023-04-20T02:42:31;51838.41;;;-142.34;25.29
12951;BME280;6540;50.858;7.232;2023-04-20T02:44:56;51779.91;;;-142.34;25.24
12951;BME280;6540;50.858;7.232;2023-04-20T02:47:22;51792.00;;;-142.34;25.58
12951;BME280;6540;50.858;7.232;2023-04-20T02:49:47;51844.47;;;-142.34;25.58
12951;BME280;6540;50.858;7.232;2023-04-20T02:52:13;51810.16;;;-142.34;25.14
12951;BME280;6540;50.858;7.232;2023-04-20T02:54:38;51814.19;;;-142.34;25.43
12951;BME280;6540;50.858;7.232;2023-04-20T02:57:03;51753.69;;;-142.34;25.40
12951;BME280;6540;50.858;7.232;2023-04-20T02:59:29;51822.25;;;-142.34;25.19
12951;BME280;6540;50.858;7.232;2023-04-20T03:01:54;51830.34;;;-142.34;25.55
12951;BME280;6540;50.858;7.232;2023-04-20T03:04:20;51802.09;;;-142.34;25.26
12951;BME280;6540;50.858;7.232;2023-04-20T03:06:46;51806.13;;;-142.34;25.11
12951;BME280;6540;50.858;7.232;2023-04-20T03:09:11;51826.31;;;-142.34;25.57
12951;BME280;6540;50.858;7.232;2023-04-20T03:11:37;51794.03;;;-142.34;25.13
12951;BME280;6540;50.858;7.232;2023-04-20T03:14:02;51790.00;;;-142.34;25.86
12951;BME280;6540;50.858;7.232;2023-04-20T03:16:28;51798.06;;;-142.34;25.25
12951;BME280;6540;50.858;7.232;2023-04-20T03:18:53;51822.25;;;-142.34;26.51
12951;BME280;6540;50.858;7.232;2023-04-20T03:21:18;51794.03;;;-142.34;25.88
12951;BME280;6540;50.858;7.232;2023-04-20T03:23:44;51816.22;;;-142.34;25.32
12951;BME280;6540;50.858;7.232;2023-04-20T03:26:10;51818.22;;;-142.34;25.96
12951;BME280;6540;50.858;7.232;2023-04-20T03:28:36;51826.31;;;-142.34;25.27
12951;BME280;6540;50.858;7.232;2023-04-20T03:31:02;51814.19;;;-142.34;25.66
12951;BME280;6540;50.858;7.232;2023-04-20T03:33:27;51830.34;;;-142.34;25.38
12951;BME280;6540;50.858;7.232;2023-04-20T03:35:53;51838.41;;;-142.34;25.26
12951;BME280;6540;50.858;7.232;2023-04-20T03:38:18;51814.19;;;-142.34;25.44
12951;BME280;6540;50.858;7.232;2023-04-20T03:40:43;51794.03;;;-142.34;25.71
12951;BME280;6540;50.858;7.232;2023-04-20T03:43:08;51818.22;;;-142.34;25.39
12951;BME280;6540;50.858;7.232;2023-04-20T03:45:35;51810.16;;;-142.34;26.44
12951;BME280;6540;50.858;7.232;2023-04-20T03:48:00;51785.94;;;-142.34;26.04
12951;BME280;6540;50.858;7.232;2023-04-20T03:50:26;51812.19;;;-142.34;26.89
12951;BME280;6540;50.858;7.232;2023-04-20T03:52:51;51796.03;;;-142.34;26.31
12951;BME280;6540;50.858;7.232;2023-04-20T03:55:17;51822.25;;;-142.34;26.52
12951;BME280;6540;50.858;7.232;2023-04-20T03:57:42;51826.31;;;-142.34;26.45
12951;BME280;6540;50.858;7.232;2023-04-20T04:00:08;51808.16;;;-142.34;27.06
12951;BME280;6540;50.858;7.232;2023-04-20T04:02:35;51826.31;;;-142.34;25.82
12951;BME280;6540;50.858;7.232;2023-04-20T04:05:00;51822.25;;;-142.34;25.32
12951;BME280;6540;50.858;7.232;2023-04-20T04:07:25;51804.13;;;-142.34;25.66
12951;BME280;6540;50.858;7.232;2023-04-20T04:09:50;51858.56;;;-142.34;25.32
12951;BME280;6540;50.858;7.232;2023-04-20T04:12:16;51806.13;;;-142.34;25.80
12951;BME280;6540;50.858;7.232;2023-04-20T04:14:42;51818.22;;;-142.34;26.22
12951;BME280;6540;50.858;7.232;2023-04-20T04:17:07;51794.03;;;-142.34;25.46
12951;BME280;6540;50.858;7.232;2023-04-20T04:19:32;51798.06;;;-142.34;25.68
12951;BME280;6540;50.858;7.232;2023-04-20T04:21:58;51802.09;;;-142.34;26.00
12951;BME280;6540;50.858;7.232;2023-04-20T04:24:23;51814.19;;;-142.34;25.78
12951;BME280;6540;50.858;7.232;2023-04-20T04:26:48;51814.19;;;-142.34;26.24
12951;BME280;6540;50.858;7.232;2023-04-20T04:29:14;51794.03;;;-142.34;26.29
12951;BME280;6540;50.858;7.232;2023-04-20T04:31:40;51818.22;;;-142.34;26.28
12951;BME280;6540;50.858;7.232;2023-04-20T04:34:05;51842.44;;;-142.34;26.46
12951;BME280;6540;50.858;7.232;2023-04-20T04:36:31;51796.03;;;-142.34;26.16
12951;BME280;6540;50.858;7.232;2023-04-20T04:38:56;51814.19;;;-142.34;26.54
12951;BME280;6540;50.858;7.232;2023-04-20T04:41:21;51822.25;;;-142.34;25.88
12951;BME280;6540;50.858;7.232;2023-04-20T04:43:47;51806.13;;;-142.34;26.54
12951;BME280;6540;50.858;7.232;2023-04-20T04:46:13;51810.16;;;-142.34;26.17
12951;BME280;6540;50.858;7.232;2023-04-20T04:48:39;51800.06;;;-142.34;26.57
12951;BME280;6540;50.858;7.232;2023-04-20T04:51:07;51806.13;;;-142.34;26.83
12951;BME280;6540;50.858;7.232;2023-04-20T04:53:32;51826.31;;;-142.34;26.21
12951;BME280;6540;50.858;7.232;2023-04-20T04:55:58;51818.22;;;-142.34;27.08
12951;BME280;6540;50.858;7.232;2023-04-20T04:58:23;51818.22;;;-142.34;27.66
12951;BME280;6540;50.858;7.232;2023-04-20T05:00:49;51826.31;;;-142.34;27.45
12951;BME280;6540;50.858;7.232;2023-04-20T05:03:14;51820.25;;;-142.34;26.64
12951;BME280;6540;50.858;7.232;2023-04-20T05:05:40;51832.34;;;-142.34;25.85
12951;BME280;6540;50.858;7.232;2023-04-20T05:08:05;51798.06;;;-142.34;26.07
12951;BME280;6540;50.858;7.232;2023-04-20T05:10:31;51794.03;;;-142.34;26.29
12951;BME280;6540;50.858;7.232;2023-04-20T05:12:56;51814.19;;;-142.34;25.83
12951;BME280;6540;50.858;7.232;2023-04-20T05:15:24;51792.00;;;-142.34;26.22
12951;BME280;6540;50.858;7.232;2023-04-20T05:17:50;51820.25;;;-142.34;26.32
12951;BME280;6540;50.858;7.232;2023-04-20T05:20:16;51844.47;;;-142.34;26.39
12951;BME280;6540;50.858;7.232;2023-04-20T05:22:41;51804.13;;;-142.34;25.82
12951;BME280;6540;50.858;7.232;2023-04-20T05:25:07;51822.25;;;-142.34;26.33
12951;BME280;6540;50.858;7.232;2023-04-20T05:27:32;51798.06;;;-142.34;26.10
12951;BME280;6540;50.858;7.232;2023-04-20T05:29:58;51785.94;;;-142.34;26.09
12951;BME280;6540;50.858;7.232;2023-04-20T05:32:23;51826.31;;;-142.34;26.66
12951;BME280;6540;50.858;7.232;2023-04-20T05:34:49;51804.13;;;-142.34;26.27
12951;BME280;6540;50.858;7.232;2023-04-20T05:37:15;51783.94;;;-142.34;25.54
12951;BME280;6540;50.858;7.232;2023-04-20T05:39:40;51816.22;;;-142.34;26.32
12951;BME280;6540;50.858;7.232;2023-04-20T05:42:06;51832.34;;;-142.34;25.94
12951;BME280;6540;50.858;7.232;2023-04-20T05:44:31;51769.81;;;-142.34;25.72
12951;BME280;6540;50.858;7.232;2023-04-20T05:46:58;51781.91;;;-142.34;26.19
12951;BME280;6540;50.858;7.232;2023-04-20T05:49:23;51769.81;;;-142.34;27.36
12951;BME280;6540;50.858;7.232;2023-04-20T05:51:49;51794.03;;;-142.34;27.42
12951;BME280;6540;50.858;7.232;2023-04-20T05:54:15;51822.25;;;-142.34;26.01
12951;BME280;6540;50.858;7.232;2023-04-20T05:56:40;51830.34;;;-142.34;26.95
12951;BME280;6540;50.858;7.232;2023-04-20T05:59:05;51842.44;;;-142.34;25.68
12951;BME280;6540;50.858;7.232;2023-04-20T06:01:31;51844.47;;;-142.34;26.34
12951;BME280;6540;50.858;7.232;2023-04-20T06:03:56;51806.13;;;-142.34;27.53
12951;BME280;6540;50.858;7.232;2023-04-20T06:06:21;51810.16;;;-142.34;26.57
12951;BME280;6540;50.858;7.232;2023-04-20T06:08:47;51826.31;;;-142.34;26.75
12951;BME280;6540;50.858;7.232;2023-04-20T06:11:12;51822.25;;;-142.34;26.62
12951;BME280;6540;50.858;7.232;2023-04-20T06:13:38;51834.38;;;-142.34;27.11
12951;BME280;6540;50.858;7.232;2023-04-20T06:16:03;51822.25;;;-142.34;27.60
12951;BME280;6540;50.858;7.232;2023-04-20T06:18:33;51852.53;;;-142.34;26.52
12951;BME280;6540;50.858;7.232;2023-04-20T06:20:58;51826.31;;;-142.34;26.76
12951;BME280;6540;50.858;7.232;2023-04-20T06:23:25;51806.13;;;-142.34;28.22
12951;BME280;6540;50.858;7.232;2023-04-20T06:25:50;51767.81;;;-142.34;27.71
12951;BME280;6540;50.858;7.232;2023-04-20T06:28:15;51830.34;;;-142.34;27.70
12951;BME280;6540;50.858;7.232;2023-04-20T06:30:41;51846.47;;;-142.34;26.72
12951;BME280;6540;50.858;7.232;2023-04-20T06:33:06;51830.34;;;-142.34;26.80
12951;BME280;6540;50.858;7.232;2023-04-20T06:35:31;51785.94;;;-142.34;27.56
12951;BME280;6540;50.858;7.232;2023-04-20T06:37:57;51844.47;;;-142.34;27.36
12951;BME280;6540;50.858;7.232;2023-04-20T06:40:26;51806.13;;;-142.34;27.99
12951;BME280;6540;50.858;7.232;2023-04-20T06:42:52;51850.50;;;-142.34;28.46
12951;BME280;6540;50.858;7.232;2023-04-20T06:45:17;51826.31;;;-142.34;27.79
12951;BME280;6540;50.858;7.232;2023-04-20T06:47:43;51818.22;;;-142.34;27.73
12951;BME280;6540;50.858;7.232;2023-04-20T06:50:08;51783.94;;;-142.34;28.27
12951;BME280;6540;50.858;7.232;2023-04-20T06:52:37;51806.13;;;-142.34;28.22
12951;BME280;6540;50.858;7.232;2023-04-20T06:55:03;51814.19;;;-142.34;27.78
12951;BME280;6540;50.858;7.232;2023-04-20T06:57:29;51826.31;;;-142.34;27.58
12951;BME280;6540;50.858;7.232;2023-04-20T06:59:54;51826.31;;;-142.34;28.14
12951;BME280;6540;50.858;7.232;2023-04-20T07:02:19;51830.34;;;-142.34;28.17
12951;BME280;6540;50.858;7.232;2023-04-20T07:04:45;51854.53;;;-142.34;29.48
12951;BME280;6540;50.858;7.232;2023-04-20T07:07:10;51818.22;;;-142.34;29.79
12951;BME280;6540;50.858;7.232;2023-04-20T07:09:35;51850.50;;;-142.34;28.96
12951;BME280;6540;50.858;7.232;2023-04-20T07:12:01;51802.09;;;-142.34;29.61
12951;BME280;6540;50.858;7.232;2023-04-20T07:14:26;51802.09;;;-142.34;26.75
12951;BME280;6540;50.858;7.232;2023-04-20T07:16:53;51796.03;;;-142.34;28.33
12951;BME280;6540;50.858;7.232;2023-04-20T07:19:19;51796.03;;;-142.34;27.82
12951;BME280;6540;50.858;7.232;2023-04-20T07:21:44;51792.00;;;-142.34;29.15
12951;BME280;6540;50.858;7.232;2023-04-20T07:24:10;51818.22;;;-142.34;29.34
12951;BME280;6540;50.858;7.232;2023-04-20T07:26:36;51816.22;;;-142.34;28.99
12951;BME280;6540;50.858;7.232;2023-04-20T07:29:01;51806.13;;;-142.34;30.18
12951;BME280;6540;50.858;7.232;2023-04-20T07:31:26;51838.41;;;-142.34;29.11
12951;BME280;6540;50.858;7.232;2023-04-20T07:33:52;51800.06;;;-142.34;28.44
12951;BME280;6540;50.858;7.232;2023-04-20T07:36:17;51828.31;;;-142.34;30.63
12951;BME280;6540;50.858;7.232;2023-04-20T07:38:43;51828.31;;;-142.34;28.13
12951;BME280;6540;50.858;7.232;2023-04-20T07:41:09;51818.22;;;-142.34;27.69
12951;BME280;6540;50.858;7.232;2023-04-20T07:43:35;51840.41;;;-142.34;29.11
12951;BME280;6540;50.858;7.232;2023-04-20T07:46:00;51773.84;;;-142.34;28.58
12951;BME280;6540;50.858;7.232;2023-04-20T07:48:26;51842.44;;;-142.34;28.32
12951;BME280;6540;50.858;7.232;2023-04-20T07:50:51;51810.16;;;-142.34;29.01
12951;BME280;6540;50.858;7.232;2023-04-20T07:53:17;51858.56;;;-142.34;28.41
12951;BME280;6540;50.858;7.232;2023-04-20T07:55:42;51812.19;;;-142.34;28.44
12951;BME280;6540;50.858;7.232;2023-04-20T07:58:08;51868.66;;;-142.34;29.78
12951;BME280;6540;50.858;7.232;2023-04-20T08:00:33;51842.44;;;-142.34;29.08
12951;BME280;6540;50.858;7.232;2023-04-20T08:02:58;51852.53;;;-142.34;29.85
12951;BME280;6540;50.858;7.232;2023-04-20T08:05:24;51830.34;;;-142.34;28.64
12951;BME280;6540;50.858;7.232;2023-04-20T08:07:49;51814.19;;;-142.34;29.12
12951;BME280;6540;50.858;7.232;2023-04-20T08:10:15;51852.53;;;-142.34;29.38
12951;BME280;6540;50.858;7.232;2023-04-20T08:12:40;51808.16;;;-142.34;30.24
12951;BME280;6540;50.858;7.232;2023-04-20T08:15:06;51818.22;;;-142.34;28.41
12951;BME280;6540;50.858;7.232;2023-04-20T08:17:32;51830.34;;;-142.34;29.42
12951;BME280;6540;50.858;7.232;2023-04-20T08:19:58;51802.09;;;-142.34;28.20
12951;BME280;6540;50.858;7.232;2023-04-20T08:22:23;51848.50;;;-142.34;28.61
12951;BME280;6540;50.858;7.232;2023-04-20T08:24:51;51854.53;;;-142.34;29.75
12951;BME280;6540;50.858;7.232;2023-04-20T08:27:17;51838.41;;;-142.34;28.94
12951;BME280;6540;50.858;7.232;2023-04-20T08:29:42;51822.25;;;-142.34;28.10
12951;BME280;6540;50.858;7.232;2023-04-20T08:32:07;51822.25;;;-142.34;27.91
12951;BME280;6540;50.858;7.232;2023-04-20T08:34:33;51820.25;;;-142.34;27.93
12951;BME280;6540;50.858;7.232;2023-04-20T08:36:59;51836.38;;;-142.34;29.01
12951;BME280;6540;50.858;7.232;2023-04-20T08:39:24;51806.13;;;-142.34;30.02
12951;BME280;6540;50.858;7.232;2023-04-20T08:41:50;51814.19;;;-142.34;28.46
12951;BME280;6540;50.858;7.232;2023-04-20T08:44:20;51882.78;;;-142.34;28.54
12951;BME280;6540;50.858;7.232;2023-04-20T08:46:46;51806.13;;;-142.34;28.36
12951;BME280;6540;50.858;7.232;2023-04-20T08:49:14;51822.25;;;-142.34;27.71
12951;BME280;6540;50.858;7.232;2023-04-20T08:51:41;51832.34;;;-142.34;27.83
12951;BME280;6540;50.858;7.232;2023-04-20T08:54:07;51798.06;;;-142.34;26.85
12951;BME280;6540;50.858;7.232;2023-04-20T08:56:41;51777.88;;;-142.34;26.84
12951;BME280;6540;50.858;7.232;2023-04-20T08:59:07;51781.91;;;-142.34;27.57
12951;BME280;6540;50.858;7.232;2023-04-20T09:01:37;51777.88;;;-142.34;27.04
12951;BME280;6540;50.858;7.232;2023-04-20T09:04:22;51779.91;;;-142.34;26.86
12951;BME280;6540;50.858;7.232;2023-04-20T09:06:53;51773.84;;;-142.34;26.34
12951;BME280;6540;50.858;7.232;2023-04-20T09:09:20;51792.00;;;-142.34;27.57
12951;BME280;6540;50.858;7.232;2023-04-20T09:11:46;51790.00;;;-142.34;26.54
12951;BME280;6540;50.858;7.232;2023-04-20T09:14:14;51765.78;;;-142.34;25.73
12951;BME280;6540;50.858;7.232;2023-04-20T09:16:54;51747.63;;;-142.34;26.71
12951;BME280;6540;50.858;7.232;2023-04-20T09:19:27;51767.81;;;-142.34;27.02
12951;BME280;6540;50.858;7.232;2023-04-20T09:21:56;51745.59;;;-142.34;26.31
12951;BME280;6540;50.858;7.232;2023-04-20T09:24:24;51741.56;;;-142.34;26.15
12951;BME280;6540;50.858;7.232;2023-04-20T09:26:54;51765.78;;;-142.34;26.58
12951;BME280;6540;50.858;7.232;2023-04-20T09:29:22;51781.91;;;-142.34;27.30
12951;BME280;6540;50.858;7.232;2023-04-20T09:31:48;51781.91;;;-142.34;25.77
12951;BME280;6540;50.858;7.232;2023-04-20T09:34:14;51745.59;;;-142.34;26.49
12951;BME280;6540;50.858;7.232;2023-04-20T09:36:42;51753.69;;;-142.34;26.39
12951;BME280;6540;50.858;7.232;2023-04-20T09:39:15;51790.00;;;-142.34;26.11
12951;BME280;6540;50.858;7.232;2023-04-20T09:41:42;51810.16;;;-142.34;26.46
12951;BME280;6540;50.858;7.232;2023-04-20T09:44:08;51794.03;;;-142.34;26.05
12951;BME280;6540;50.858;7.232;2023-04-20T09:46:36;51794.03;;;-142.34;27.12
12951;BME280;6540;50.858;7.232;2023-04-20T09:49:03;51769.81;;;-142.34;27.10
12951;BME280;6540;50.858;7.232;2023-04-20T09:51:31;51765.78;;;-142.34;26.56
12951;BME280;6540;50.858;7.232;2023-04-20T09:53:58;51785.94;;;-142.34;25.97
12951;BME280;6540;50.858;7.232;2023-04-20T09:56:25;51769.81;;;-142.34;26.02
12951;BME280;6540;50.858;7.232;2023-04-20T09:58:51;51733.50;;;-142.34;25.81
12951;BME280;6540;50.858;7.232;2023-04-20T10:01:17;51753.69;;;-142.34;26.29
12951;BME280;6540;50.858;7.232;2023-04-20T10:03:43;51765.78;;;-142.34;27.73
12951;BME280;6540;50.858;7.232;2023-04-20T10:06:25;51763.75;;;-142.34;25.91
12951;BME280;6540;50.858;7.232;2023-04-20T10:08:52;51753.69;;;-142.34;27.13
12951;BME280;6540;50.858;7.232;2023-04-20T10:13:52;51761.75;;;-142.34;26.11
12951;BME280;6540;50.858;7.232;2023-04-20T10:16:19;51749.66;;;-142.34;25.73
12951;BME280;6540;50.858;7.232;2023-04-20T10:18:55;51723.41;;;-142.34;25.41
12951;BME280;6540;50.858;7.232;2023-04-20T10:21:21;51741.56;;;-142.34;25.88
12951;BME280;6540;50.858;7.232;2023-04-20T10:23:51;51749.66;;;-142.34;26.27
12951;BME280;6540;50.858;7.232;2023-04-20T10:26:16;51737.53;;;-142.34;26.34
12951;BME280;6540;50.858;7.232;2023-04-20T10:28:42;51781.91;;;-142.34;26.44
12951;BME280;6540;50.858;7.232;2023-04-20T10:31:09;51773.84;;;-142.34;25.85
12951;BME280;6540;50.858;7.232;2023-04-20T10:33:53;51787.97;;;-142.34;26.10
12951;BME280;6540;50.858;7.232;2023-04-20T10:36:31;51790.00;;;-142.34;26.18
12951;BME280;6540;50.858;7.232;2023-04-20T10:38:59;51727.44;;;-142.34;25.32
12951;BME280;6540;50.858;7.232;2023-04-20T10:41:26;51773.84;;;-142.34;25.47
12951;BME280;6540;50.858;7.232;2023-04-20T10:43:52;51798.06;;;-142.34;26.43
12951;BME280;6540;50.858;7.232;2023-04-20T10:46:19;51729.47;;;-142.34;26.48
12951;BME280;6540;50.858;7.232;2023-04-20T10:49:03;51749.66;;;-142.34;26.54
12951;BME280;6540;50.858;7.232;2023-04-20T10:51:29;51773.84;;;-142.34;26.17
12951;BME280;6540;50.858;7.232;2023-04-20T10:54:05;51757.72;;;-142.34;25.40
12951;BME280;6540;50.858;7.232;2023-04-20T10:59:11;51779.91;;;-142.34;25.61
12951;BME280;6540;50.858;7.232;2023-04-20T11:01:37;51763.75;;;-142.34;25.85
12951;BME280;6540;50.858;7.232;2023-04-20T11:04:03;51753.69;;;-142.34;27.99
12951;BME280;6540;50.858;7.232;2023-04-20T11:06:29;51790.00;;;-142.34;27.10
12951;BME280;6540;50.858;7.232;2023-04-20T11:08:56;51761.75;;;-142.34;27.17
12951;BME280;6540;50.858;7.232;2023-04-20T11:11:26;51820.25;;;-142.34;26.57
12951;BME280;6540;50.858;7.232;2023-04-20T11:14:04;51800.06;;;-142.34;26.00
12951;BME280;6540;50.858;7.232;2023-04-20T11:16:30;51783.94;;;-142.34;25.81
12951;BME280;6540;50.858;7.232;2023-04-20T11:18:56;51765.78;;;-142.34;25.29
12951;BME280;6540;50.858;7.232;2023-04-20T11:21:22;51798.06;;;-142.34;26.32
12951;BME280;6540;50.858;7.232;2023-04-20T11:23:48;51798.06;;;-142.34;27.00
12951;BME280;6540;50.858;7.232;2023-04-20T11:26:14;51816.22;;;-142.34;26.03
12951;BME280;6540;50.858;7.232;2023-04-20T11:28:52;51749.66;;;-142.34;25.41
12951;BME280;6540;50.858;7.232;2023-04-20T11:31:18;51771.84;;;-142.34;25.75
12951;BME280;6540;50.858;7.232;2023-04-20T11:33:43;51761.75;;;-142.34;25.06
12951;BME280;6540;50.858;7.232;2023-04-20T11:36:20;51785.94;;;-142.34;25.58
12951;BME280;6540;50.858;7.232;2023-04-20T11:38:46;51765.78;;;-142.34;27.36
12951;BME280;6540;50.858;7.232;2023-04-20T11:41:11;51777.88;;;-142.34;26.70
12951;BME280;6540;50.858;7.232;2023-04-20T11:43:37;51781.91;;;-142.34;26.91
12951;BME280;6540;50.858;7.232;2023-04-20T11:46:02;51777.88;;;-142.34;25.39
12951;BME280;6540;50.858;7.232;2023-04-20T11:48:36;51785.94;;;-142.34;27.02
12951;BME280;6540;50.858;7.232;2023-04-20T11:51:01;51753.69;;;-142.34;25.39
12951;BME280;6540;50.858;7.232;2023-04-20T11:53:27;51773.84;;;-142.34;25.76
12951;BME280;6540;50.858;7.232;2023-04-20T11:55:53;51790.00;;;-142.34;26.68
12951;BME280;6540;50.858;7.232;2023-04-20T11:58:18;51798.06;;;-142.34;25.34
12951;BME280;6540;50.858;7.232;2023-04-20T12:00:44;51759.72;;;-142.34;25.39
12951;BME280;6540;50.858;7.232;2023-04-20T12:03:09;51763.75;;;-142.34;24.83
12951;BME280;6540;50.858;7.232;2023-04-20T12:05:34;51769.81;;;-142.34;25.18
12951;BME280;6540;50.858;7.232;2023-04-20T12:08:00;51775.88;;;-142.34;25.02
12951;BME280;6540;50.858;7.232;2023-04-20T12:10:25;51790.00;;;-142.34;25.00
12951;BME280;6540;50.858;7.232;2023-04-20T12:12:50;51790.00;;;-142.34;25.57
12951;BME280;6540;50.858;7.232;2023-04-20T12:15:16;51741.56;;;-142.34;25.90
12951;BME280;6540;50.858;7.232;2023-04-20T12:17:41;51737.53;;;-142.34;25.60
12951;BME280;6540;50.858;7.232;2023-04-20T12:20:07;51753.69;;;-142.34;26.60
12951;BME280;6540;50.858;7.232;2023-04-20T12:22:35;51765.78;;;-142.34;25.13
12951;BME280;6540;50.858;7.232;2023-04-20T12:25:01;51749.66;;;-142.34;25.13
12951;BME280;6540;50.858;7.232;2023-04-20T12:27:26;51725.44;;;-142.34;25.06
12951;BME280;6540;50.858;7.232;2023-04-20T12:29:52;51719.38;;;-142.34;25.48
12951;BME280;6540;50.858;7.232;2023-04-20T12:32:17;51733.50;;;-142.34;25.56
12951;BME280;6540;50.858;7.232;2023-04-20T12:34:42;51773.84;;;-142.34;25.13
12951;BME280;6540;50.858;7.232;2023-04-20T12:37:08;51806.13;;;-142.34;26.20
12951;BME280;6540;50.858;7.232;2023-04-20T12:39:33;51781.91;;;-142.34;25.64
12951;BME280;6540;50.858;7.232;2023-04-20T12:41:59;51765.78;;;-142.34;25.53
12951;BME280;6540;50.858;7.232;2023-04-20T12:44:24;51785.94;;;-142.34;25.98
12951;BME280;6540;50.858;7.232;2023-04-20T12:46:49;51798.06;;;-142.34;26.14
12951;BME280;6540;50.858;7.232;2023-04-20T12:49:15;51785.94;;;-142.34;25.94
12951;BME280;6540;50.858;7.232;2023-04-20T12:51:40;51814.19;;;-142.34;25.72